Llano, New Mexico
Current Conditions -  °F | °C
As of 5:55 AM on Sunday 21 Dec 2014 (Local Time) from KSKX Reporting Station
Clear Clear  
Wind Chill: 23°   Ceiling: Unl
Heat Index: 23°   Visibility: 10mi
Dew Point: 18°   Wind: 3mph
Humidity: 80%   Direction: 90°E
Pressure: 30.01"   Gusts: NA
Location:  36.14°N, 105.68°W
Report Text: KSKX 211255Z AUTO 09003KT 10SM CLR M05/M08 A3001 RMK AO1
Loading
Personal Weather Stations






























Interactive Weather Map New forecast layout! Learn more

10-Day Weather Forecast

Advertisements
Track Severe Weather on mobile